Marshfield, MA

3:38 AM EDT on March 30, 2017 (GMT -0400)
Marshfield

Weather History for KGHG - February, 2014

Change the Weather History Date:

Friday, February 21, 2014

  Actual Average (KPYM) Record (KPYM)
Temperature  
Mean Temperature 43 °F -  
Max Temperature 53 °F 42 °F 63 °F (1954)
Min Temperature 33 °F 21 °F -9 °F (2015)
Degree Days  
Heating Degree Days 22    
Moisture  
Dew Point 41 °F    
Average Humidity 98    
Maximum Humidity 100    
Minimum Humidity 93    
Precipitation  
Precipitation 0.19 in - - ()
Sea Level Pressure  
Sea Level Pressure 29.94 in    
Wind  
Wind Speed 6 mph (ESE)    
Max Wind Speed 18 mph    
Max Gust Speed 30 mph    
Visibility 4 miles    
Events Fog , Rain , Thunderstorm    
Averages and records for this station are not official NWS values.
T = Trace of Precipitation, MM = Missing Value Source: NWS Daily Summary

Daily Weather History Graph

Daily Weather History Graph

Search for Another Location

Airport or City:

Trip Planner

Search our weather history database for the weather conditions in past years. The results will help you decide how hot, cold, wet, or windy it might be!

Date:

Astronomy

Feb. 21, 2014 Rise Set
Actual Time 6:30 AM EST 5:22 PM EST
Civil Twilight 6:01 AM EST 5:51 PM EST
Nautical Twilight 5:29 AM EST 6:23 PM EST
Astronomical Twilight 4:57 AM EST 6:56 PM EST
Moon No Moon Rise 9:45 AM EST (2/21)
Length of Visible Light 11h 49m
Length of Day
10h 52m
Waning Gibbous, 61% of the Moon is Illuminated
Feb 21
Waning Gibbous
Feb 22
Last Quarter
Mar 1
New
Mar 8
First Quarter
Mar 16
Full

Hourly Weather History & Observations

Time (EST) Temp. Windchill Dew Point Humidity Pressure Visibility Wind Dir Wind Speed Gust Speed Precip Events Conditions
12:15 AM 33.8 °F - 33.8 °F 100% 30.19 in 1.5 mi Calm Calm - 0.04 in Rain Heavy Rain
12:35 AM 35.6 °F - 33.8 °F 93% 30.17 in - Calm Calm - 0.06 in   Light Drizzle
12:55 AM 35.6 °F 32.8 °F 33.8 °F 93% 30.16 in 10.0 mi NE 3.5 mph - 0.07 in   Overcast
1:15 AM 35.6 °F - 33.8 °F 93% 30.16 in 10.0 mi Calm Calm - N/A   Overcast
1:35 AM 35.6 °F 31.7 °F 33.8 °F 93% 30.15 in 8.0 mi ENE 4.6 mph - N/A   Mostly Cloudy
1:55 AM 35.6 °F 30.7 °F 33.8 °F 93% 30.15 in 10.0 mi ENE 5.8 mph - N/A   Overcast
2:15 AM 35.6 °F 29.9 °F 35.6 °F 100% 30.14 in 10.0 mi East 6.9 mph - N/A   Overcast
2:35 AM 35.6 °F 29.2 °F 35.6 °F 100% 30.13 in 10.0 mi East 8.1 mph - N/A   Overcast
2:55 AM 37.4 °F 30.8 °F 35.6 °F 93% 30.12 in 7.0 mi ENE 9.2 mph - N/A   Overcast
3:15 AM 37.4 °F 30.8 °F 35.6 °F 93% 30.11 in 10.0 mi ENE 9.2 mph - N/A   Overcast
3:35 AM 37.4 °F 31.4 °F 35.6 °F 93% 30.11 in 5.0 mi ENE 8.1 mph - N/A Rain Light Rain
3:55 AM 37.4 °F 30.8 °F 35.6 °F 93% 30.11 in 8.0 mi ENE 9.2 mph - 0.02 in   Light Drizzle
4:15 AM 37.4 °F 30.8 °F 35.6 °F 93% 30.09 in 10.0 mi ENE 9.2 mph - N/A   Overcast
4:35 AM 37.4 °F 31.4 °F 35.6 °F 93% 30.09 in 10.0 mi ENE 8.1 mph - N/A   Overcast
4:55 AM 37.4 °F 30.3 °F 35.6 °F 93% 30.09 in 10.0 mi ENE 10.4 mph - N/A   Overcast
5:15 AM 37.4 °F 29.8 °F 35.6 °F 93% 30.09 in 5.0 mi East 11.5 mph - N/A   Overcast
5:35 AM 37.4 °F 30.3 °F 35.6 °F 93% 30.09 in 7.0 mi East 10.4 mph - N/A   Overcast
5:55 AM 37.4 °F 30.8 °F 35.6 °F 93% 30.09 in 5.0 mi East 9.2 mph - N/A   Overcast
6:15 AM 37.4 °F 31.4 °F 37.4 °F 100% 30.11 in 8.0 mi NE 8.1 mph - N/A   Overcast
6:35 AM 37.4 °F 29.8 °F 37.4 °F 100% 30.10 in 5.0 mi NE 11.5 mph - N/A   Overcast
6:55 AM 37.4 °F 30.8 °F 37.4 °F 100% 30.10 in 1.8 mi ENE 9.2 mph - N/A Rain Light Rain
7:15 AM 37.4 °F 31.4 °F 37.4 °F 100% 30.11 in 2.5 mi ENE 8.1 mph - N/A   Overcast
7:35 AM 37.4 °F 30.3 °F 37.4 °F 100% 30.10 in 1.2 mi ENE 10.4 mph - N/A   Light Drizzle
7:55 AM 37.4 °F 30.8 °F 37.4 °F 100% 30.09 in 1.0 mi ENE 9.2 mph - N/A   Light Drizzle
8:15 AM 37.4 °F 30.8 °F 37.4 °F 100% 30.09 in 1.0 mi East 9.2 mph - N/A   Light Drizzle
8:35 AM 37.4 °F 31.4 °F 37.4 °F 100% 30.09 in 1.0 mi East 8.1 mph - N/A   Light Drizzle
8:55 AM 37.4 °F 31.4 °F 37.4 °F 100% 30.07 in 0.8 mi East 8.1 mph - N/A   Light Drizzle
9:15 AM 37.4 °F 32.1 °F 37.4 °F 100% 30.06 in 0.8 mi ENE 6.9 mph - N/A   Light Drizzle
9:35 AM 37.4 °F 32.8 °F 37.4 °F 100% 30.04 in 0.8 mi ENE 5.8 mph - N/A   Light Drizzle
9:55 AM 37.4 °F 33.8 °F 37.4 °F 100% 30.04 in 0.8 mi ENE 4.6 mph - N/A   Light Drizzle
10:15 AM 37.4 °F 32.8 °F 37.4 °F 100% 30.04 in 0.8 mi East 5.8 mph - N/A   Light Drizzle
10:35 AM 37.4 °F 32.1 °F 37.4 °F 100% 30.03 in 0.5 mi East 6.9 mph - N/A   Light Drizzle
10:55 AM 37.4 °F 32.1 °F 37.4 °F 100% 30.02 in 0.5 mi East 6.9 mph - N/A   Light Drizzle
11:15 AM 39.2 °F 34.2 °F 37.4 °F 93% 30.00 in 0.8 mi East 6.9 mph - N/A   Light Drizzle
11:35 AM 39.2 °F 34.2 °F 39.2 °F 100% 29.98 in 0.5 mi ESE 6.9 mph - N/A   Light Drizzle
11:55 AM 39.2 °F 37.0 °F 39.2 °F 100% 29.97 in 0.2 mi ESE 3.5 mph - N/A   Light Drizzle
12:15 PM 39.2 °F 35.9 °F 39.2 °F 100% 29.95 in 0.2 mi East 4.6 mph - N/A   Light Drizzle
12:35 PM 39.2 °F 34.2 °F 39.2 °F 100% 29.94 in 0.2 mi East 6.9 mph - N/A   Light Drizzle
12:55 PM 39.2 °F 35.0 °F 39.2 °F 100% 29.92 in 0.2 mi ESE 5.8 mph - N/A   Light Drizzle
1:15 PM 39.2 °F 34.2 °F 39.2 °F 100% 29.90 in 0.2 mi ESE 6.9 mph - N/A   Light Drizzle
1:35 PM 39.2 °F 34.2 °F 39.2 °F 100% 29.88 in 0.2 mi ESE 6.9 mph - N/A   Light Drizzle
1:55 PM 39.2 °F 34.2 °F 39.2 °F 100% 29.87 in 0.2 mi SE 6.9 mph - N/A   Light Drizzle
2:15 PM 39.2 °F 34.2 °F 39.2 °F 100% 29.86 in 0.2 mi ESE 6.9 mph - N/A Fog Fog
2:35 PM 39.2 °F 37.0 °F 39.2 °F 100% 29.85 in 0.2 mi SE 3.5 mph - N/A Fog Fog
2:55 PM 39.2 °F 35.0 °F 39.2 °F 100% 29.84 in 0.2 mi SE 5.8 mph - N/A Fog Fog
3:15 PM 39.2 °F 37.0 °F 39.2 °F 100% 29.83 in 0.2 mi SE 3.5 mph - N/A Fog Fog
3:35 PM 39.2 °F - 39.2 °F 100% 29.81 in 0.2 mi Calm Calm - N/A Fog Fog
3:55 PM 41.0 °F 38.0 °F 41.0 °F 100% 29.81 in 0.2 mi SE 4.6 mph - N/A Fog Fog
4:15 PM 41.0 °F 36.4 °F 41.0 °F 100% 29.80 in 0.2 mi SE 6.9 mph - N/A Fog Fog
4:35 PM 42.8 °F 39.3 °F 42.8 °F 100% 29.78 in 0.2 mi SE 5.8 mph - N/A Fog Fog
4:55 PM 42.8 °F 38.6 °F 42.8 °F 100% 29.76 in 0.2 mi SE 6.9 mph - N/A Fog Fog
5:15 PM 42.8 °F 38.6 °F 42.8 °F 100% 29.74 in 0.2 mi SE 6.9 mph - N/A Thunderstorm Light Drizzle
5:35 PM 44.6 °F 41.4 °F 44.6 °F 100% 29.72 in 0.2 mi SSE 5.8 mph - 0.01 in Thunderstorm Light Drizzle
5:55 PM 51.8 °F - 51.8 °F 100% 29.74 in 0.2 mi South 18.4 mph 29.9 mph 0.07 in Rain , Thunderstorm Rain
6:15 PM 53.6 °F - 53.6 °F 100% 29.73 in 3.0 mi South 13.8 mph 19.6 mph 0.02 in Rain , Thunderstorm Light Thunderstorms and Rain
6:35 PM 53.6 °F - 53.6 °F 100% 29.69 in 8.0 mi South 11.5 mph 23.0 mph 0.03 in Thunderstorm Unknown
6:55 PM 53.6 °F - 53.6 °F 100% 29.70 in 10.0 mi South 10.4 mph 16.1 mph 0.03 in Thunderstorm Drizzle
7:15 PM 51.8 °F - 51.8 °F 100% 29.71 in 10.0 mi South 11.5 mph 18.4 mph N/A   Drizzle
7:35 PM 53.6 °F - 53.6 °F 100% 29.71 in 4.0 mi South 9.2 mph 17.3 mph N/A Rain , Thunderstorm Light Rain
7:55 PM 53.6 °F - 53.6 °F 100% 29.70 in 1.8 mi SSW 9.2 mph 21.9 mph N/A   Drizzle
8:15 PM 53.6 °F - 53.6 °F 100% 29.71 in 5.0 mi SSW 10.4 mph 23.0 mph N/A   Drizzle
8:35 PM 53.6 °F - 53.6 °F 100% 29.72 in 2.5 mi SW 8.1 mph 17.3 mph N/A   Drizzle
8:55 PM 51.8 °F - 51.8 °F 100% 29.71 in 10.0 mi WSW 11.5 mph - N/A   Drizzle
9:15 PM 50.0 °F - 50.0 °F 100% 29.72 in 10.0 mi West 3.5 mph - N/A   Light Drizzle
9:35 PM 48.2 °F - 48.2 °F 100% 29.76 in 10.0 mi West 8.1 mph - N/A   Light Drizzle
9:55 PM 46.4 °F 44.3 °F 46.4 °F 100% 29.78 in 10.0 mi West 4.6 mph - N/A   Light Drizzle
10:15 PM 44.6 °F 40.2 °F 44.6 °F 100% 29.81 in 10.0 mi West 8.1 mph - N/A   Light Drizzle
10:35 PM 44.6 °F 40.7 °F 42.8 °F 93% 29.84 in 10.0 mi West 6.9 mph - N/A   Mostly Cloudy
10:55 PM 42.8 °F 41.1 °F 42.8 °F 100% 29.84 in 10.0 mi WNW 3.5 mph - N/A   Mostly Cloudy
11:15 PM 42.8 °F 41.1 °F 42.8 °F 100% 29.85 in 10.0 mi West 3.5 mph - N/A   Scattered Clouds
11:35 PM 42.8 °F 41.1 °F 41.0 °F 93% 29.87 in 10.0 mi West 3.5 mph - N/A   Clear
11:55 PM 41.0 °F 39.0 °F 39.2 °F 93% 29.87 in 9.0 mi West 3.5 mph - N/A   Clear